< < Back
Terminal Aerodrome Forecast


Current Version              Previous Versions:   1  2  3  4  5  6  7  8  9  

Terminal Aerodrome Forecast

870
FTUS44 KOHX 301100
TAFBNA
TAF
KBNA 301122Z 3012/3112 00000KT P6SM SCT200
     FM301500 36006KT P6SM FEW070 SCT200=



Latest METAR

362
SAUS70 KWBC 301900 RRN
MTRBNA
METAR KBNA 301853Z 33005KT 10SM BKN055 BKN250 28/14 A3010 RMK AO2 SLP188
T02780139


USA.gov is the U.S. government's official web portal to all federal, state and local government web resources and services.